Time;durP1;ratioP1;P1;durP2;ratioP2;P2;SDS_P1;SDS_P2;PMS_P1;PMS_P2;Temp;Humidity;BMP_temperature;BMP_pressure;BME280_temperature;BME280_humidity;BME280_pressure;Samples;Min_cycle;Max_cycle;Signal;HPM_P1;HPM_P2
2021/07/25 00:00:33;;;;;;;12.90;11.70;;;;;;;23.70;59.89;100020.75;5011885;28;20037;-55
2021/07/25 00:02:58;;;;;;;13.82;11.38;;;;;;;23.69;59.89;100003.78;5011159;28;20029;-55
2021/07/25 00:05:23;;;;;;;11.50;10.48;;;;;;;23.68;59.82;100007.41;5011412;28;20056;-55
2021/07/25 00:07:49;;;;;;;11.30;10.30;;;;;;;23.69;60.04;100002.91;5011902;28;20034;-55
2021/07/25 00:10:14;;;;;;;11.50;10.43;;;;;;;23.68;60.07;100007.41;5011699;28;20487;-55
2021/07/25 00:12:39;;;;;;;11.65;10.55;;;;;;;23.68;59.80;100001.19;4993125;28;20408;-55
2021/07/25 00:15:05;;;;;;;11.70;10.60;;;;;;;23.68;60.31;100009.28;4992452;28;20038;-55
2021/07/25 00:17:31;;;;;;;12.43;11.32;;;;;;;23.67;59.97;100002.16;5011445;28;20111;-55
2021/07/25 00:19:56;;;;;;;12.73;11.52;;;;;;;23.67;60.05;100000.31;5011384;28;20249;-55
2021/07/25 00:22:21;;;;;;;11.65;10.57;;;;;;;23.67;59.90;100005.72;5011549;28;20026;-54
2021/07/25 00:25:07;;;;;;;12.07;10.98;;;;;;;23.67;59.93;100002.16;5011523;28;20030;-55
2021/07/25 00:27:39;;;;;;;11.85;10.75;;;;;;;23.66;60.18;99998.63;5010172;28;20025;-54
2021/07/25 00:30:15;;;;;;;12.13;10.93;;;;;;;23.66;60.30;100003.13;5011048;28;20030;-55
2021/07/25 00:32:40;;;;;;;12.70;11.50;;;;;;;23.65;60.11;99999.59;4976455;28;20039;-55
2021/07/25 00:35:07;;;;;;;12.30;11.10;;;;;;;23.64;60.20;100000.53;5008868;28;20083;-54
2021/07/25 00:37:32;;;;;;;12.77;11.57;;;;;;;23.66;59.92;100003.13;5011290;28;20030;-54
2021/07/25 00:43:29;;;;;;;12.93;11.57;;;;;;;23.63;59.94;100014.13;5017886;28;20040;-55
2021/07/25 00:45:55;;;;;;;12.85;11.65;;;;;;;23.63;60.25;100006.03;5010800;28;20034;-55
2021/07/25 00:48:22;;;;;;;11.90;10.85;;;;;;;23.61;60.32;100006.16;5015297;28;20060;-55
2021/07/25 00:50:48;;;;;;;13.18;11.80;;;;;;;23.62;60.31;100015.09;5015325;28;20099;-55
2021/07/25 00:53:18;;;;;;;12.40;11.20;;;;;;;23.63;59.97;100019.50;5015825;28;20419;-55
2021/07/25 00:55:44;;;;;;;12.32;11.13;;;;;;;23.60;60.27;100017.91;5015397;28;20506;-55
2021/07/25 00:58:10;;;;;;;12.13;10.90;;;;;;;23.61;60.22;100022.31;5015710;28;20037;-55
2021/07/25 01:00:36;;;;;;;13.65;12.27;;;;;;;23.60;60.31;100011.69;4997312;28;20053;-55
2021/07/25 01:03:10;;;;;;;14.35;12.85;;;;;;;23.60;60.10;100014.38;5015035;28;20076;-55
2021/07/25 01:05:47;;;;;;;12.75;11.57;;;;;;;23.59;60.18;100018.88;5014638;28;20025;-55
2021/07/25 01:08:22;;;;;;;12.18;10.98;;;;;;;23.60;59.99;100027.84;4997771;28;20438;-54
2021/07/25 01:10:48;;;;;;;13.02;11.77;;;;;;;23.59;60.05;100035.03;5014362;28;20029;-54
2021/07/25 01:13:19;;;;;;;12.25;11.15;;;;;;;23.58;60.01;100027.94;4997335;28;20029;-55
2021/07/25 01:15:45;;;;;;;12.38;11.18;;;;;;;23.57;60.23;100020.81;4981555;28;20495;-55
2021/07/25 01:18:10;;;;;;;12.30;11.10;;;;;;;23.57;60.01;100026.19;5014989;28;20034;-55
2021/07/25 01:20:36;;;;;;;12.68;11.45;;;;;;;23.58;60.42;100022.56;5015134;28;20076;-55
2021/07/25 01:23:01;;;;;;;13.15;11.95;;;;;;;23.58;60.07;100027.94;5015104;28;20121;-55
2021/07/25 01:25:28;;;;;;;13.88;12.30;;;;;;;23.57;60.03;100020.81;5014743;28;20018;-55
2021/07/25 01:28:14;;;;;;;12.27;11.15;;;;;;;23.56;60.34;100011.03;5014880;28;20077;-55
2021/07/25 01:30:42;;;;;;;12.32;11.10;;;;;;;23.55;60.34;100007.50;4996732;28;20065;-55
2021/07/25 01:33:20;;;;;;;13.57;12.27;;;;;;;23.55;59.99;100018.28;4997286;28;20048;-55
2021/07/25 01:35:46;;;;;;;13.10;11.70;;;;;;;23.54;60.45;100018.38;4996919;28;20056;-55
2021/07/25 01:38:11;;;;;;;13.57;12.18;;;;;;;23.54;60.36;100021.06;4997169;28;20424;-55
2021/07/25 01:40:36;;;;;;;12.88;11.55;;;;;;;23.54;60.07;100023.75;5013224;28;20088;-54
2021/07/25 01:43:03;;;;;;;13.73;12.35;;;;;;;23.53;60.22;100019.34;5013498;28;20029;-55
2021/07/25 01:45:28;;;;;;;12.75;11.55;;;;;;;23.52;59.94;100023.00;5013779;28;20079;-55
2021/07/25 01:47:54;;;;;;;12.65;11.35;;;;;;;23.52;60.16;100028.38;5014986;28;20025;-55
2021/07/25 01:50:19;;;;;;;14.15;12.75;;;;;;;23.52;60.12;100029.25;5014386;28;20064;-55
2021/07/25 01:52:45;;;;;;;14.00;12.70;;;;;;;23.50;60.44;100039.25;5014043;28;20042;-55
2021/07/25 01:55:11;;;;;;;13.25;11.93;;;;;;;23.51;60.42;100038.28;5014268;28;20053;-55
2021/07/25 01:57:36;;;;;;;14.25;12.95;;;;;;;23.51;60.60;100040.13;5014237;28;20036;-55
2021/07/25 02:00:03;;;;;;;12.57;11.40;;;;;;;23.50;60.26;100033.88;5013636;28;20036;-55
2021/07/25 02:02:28;;;;;;;13.63;12.23;;;;;;;23.50;60.33;100041.13;4996624;28;20026;-55
2021/07/25 02:04:54;;;;;;;12.55;11.35;;;;;;;23.49;60.46;100034.84;5013860;28;20030;-55
2021/07/25 02:07:19;;;;;;;13.40;12.05;;;;;;;23.50;60.51;100046.50;5014421;28;20403;-55
2021/07/25 02:09:44;;;;;;;13.73;12.40;;;;;;;23.48;60.39;100038.53;5013034;28;20038;-55
2021/07/25 02:12:11;;;;;;;13.85;12.45;;;;;;;23.48;60.47;100037.66;5013014;28;20526;-54
2021/07/25 02:14:38;;;;;;;13.25;11.88;;;;;;;23.48;60.42;100043.03;4996944;28;20121;-55
2021/07/25 02:17:06;;;;;;;14.38;12.98;;;;;;;23.48;60.36;100049.28;5013271;28;20021;-55
2021/07/25 02:19:31;;;;;;;13.63;12.32;;;;;;;23.46;60.39;100045.84;5014293;28;20026;-55
2021/07/25 02:21:57;;;;;;;13.90;12.50;;;;;;;23.46;60.55;100040.47;4996200;28;20036;-55
2021/07/25 02:24:22;;;;;;;14.50;13.20;;;;;;;23.44;60.60;100035.19;5014086;28;20025;-55
2021/07/25 02:26:49;;;;;;;14.43;13.02;;;;;;;23.47;60.38;100046.72;5013279;28;20053;-55
2021/07/25 02:29:15;;;;;;;14.25;12.95;;;;;;;23.44;60.59;100037.03;5013151;28;20026;-54
2021/07/25 02:31:40;;;;;;;13.70;12.38;;;;;;;23.44;60.49;100031.66;5013541;28;20028;-55
2021/07/25 02:34:05;;;;;;;16.35;13.70;;;;;;;23.44;60.39;100039.72;5013798;28;20038;-55
2021/07/25 02:36:37;;;;;;;13.55;12.25;;;;;;;23.43;60.14;100035.31;5013426;28;20438;-55
2021/07/25 02:39:03;;;;;;;14.25;12.75;;;;;;;23.42;60.62;100031.78;5011704;28;20488;-55
2021/07/25 02:41:29;;;;;;;13.63;12.43;;;;;;;23.42;60.61;100038.97;5012858;28;20032;-55
2021/07/25 02:43:54;;;;;;;14.65;13.23;;;;;;;23.41;60.37;100038.09;5013872;28;20022;-55
2021/07/25 02:46:20;;;;;;;13.98;12.68;;;;;;;23.40;60.53;100031.00;5012530;28;20026;-55
2021/07/25 02:48:47;;;;;;;14.15;12.68;;;;;;;23.40;60.61;100044.47;5013547;28;20037;-55
2021/07/25 02:51:12;;;;;;;14.77;13.27;;;;;;;23.40;60.49;100036.41;5012980;28;20511;-55
2021/07/25 02:53:37;;;;;;;15.30;13.70;;;;;;;23.39;60.54;100044.56;5012935;28;20022;-55
2021/07/25 02:56:03;;;;;;;14.18;12.75;;;;;;;23.38;60.43;100043.75;5013059;28;20073;-55
2021/07/25 02:58:28;;;;;;;13.65;12.05;;;;;;;23.38;60.35;100037.47;5013197;28;20441;-55
2021/07/25 03:00:54;;;;;;;16.13;13.50;;;;;;;23.36;60.40;100029.53;5012918;28;20088;-55
2021/07/25 03:03:19;;;;;;;14.18;12.63;;;;;;;23.37;60.49;100052.75;4994958;28;20083;-55
2021/07/25 03:05:44;;;;;;;14.00;12.70;;;;;;;23.37;60.65;100049.22;5012689;28;20034;-55
2021/07/25 03:08:09;;;;;;;15.20;13.63;;;;;;;23.35;60.66;100046.66;5012183;28;20099;-55
2021/07/25 03:10:35;;;;;;;14.75;13.27;;;;;;;23.36;60.31;100045.66;5011682;28;20049;-54
2021/07/25 03:13:00;;;;;;;16.50;13.73;;;;;;;23.34;60.50;100039.50;5013027;28;20030;-54
2021/07/25 03:15:25;;;;;;;15.10;13.60;;;;;;;23.34;60.76;100034.09;5012515;28;20043;-55
2021/07/25 03:17:52;;;;;;;14.95;13.32;;;;;;;23.34;60.38;100036.81;5012726;28;20446;-55
2021/07/25 03:20:18;;;;;;;14.60;13.13;;;;;;;23.33;60.54;100052.09;5012662;28;20026;-55
2021/07/25 03:22:43;;;;;;;14.57;13.38;;;;;;;23.33;60.66;100056.63;5012677;28;20109;-55
2021/07/25 03:25:09;;;;;;;14.70;13.23;;;;;;;23.32;60.71;100045.00;5011080;28;20030;-55
2021/07/25 03:27:34;;;;;;;13.80;12.40;;;;;;;23.32;60.45;100049.53;5013138;28;20053;-55
2021/07/25 03:29:59;;;;;;;14.15;12.85;;;;;;;23.30;60.70;100057.69;5012762;28;20022;-55
2021/07/25 03:32:25;;;;;;;14.43;12.90;;;;;;;23.31;60.64;100053.19;5012181;28;20451;-55
2021/07/25 03:34:50;;;;;;;14.68;13.23;;;;;;;23.31;60.52;100063.94;5012554;28;20598;-54
2021/07/25 03:37:17;;;;;;;14.93;13.52;;;;;;;23.29;60.66;100061.38;5012456;28;20034;-55
2021/07/25 03:39:45;;;;;;;13.75;12.40;;;;;;;23.29;60.58;100061.38;5012365;28;20032;-55
2021/07/25 03:42:11;;;;;;;15.02;13.52;;;;;;;23.30;60.54;100064.91;5012253;28;20084;-55
2021/07/25 03:44:37;;;;;;;14.40;13.02;;;;;;;23.28;60.66;100065.00;5011779;28;20038;-55
2021/07/25 03:47:03;;;;;;;13.88;12.57;;;;;;;23.29;60.44;100066.75;5011642;28;20479;-55
2021/07/25 03:49:28;;;;;;;14.15;12.65;;;;;;;23.30;60.23;100072.97;5012560;28;20107;-55
2021/07/25 03:51:53;;;;;;;15.82;13.77;;;;;;;23.28;60.42;100070.38;5010196;28;20083;-55
2021/07/25 03:54:19;;;;;;;14.60;13.20;;;;;;;23.28;60.65;100066.84;4995139;28;20029;-55
2021/07/25 03:56:44;;;;;;;14.52;13.05;;;;;;;23.27;60.49;100070.53;5012743;28;20026;-55
2021/07/25 03:59:09;;;;;;;15.43;13.82;;;;;;;23.27;60.72;100086.66;5012426;28;20507;-55
2021/07/25 04:01:35;;;;;;;14.40;12.90;;;;;;;23.27;60.39;100083.97;5012176;28;20403;-55
2021/07/25 04:04:00;;;;;;;14.18;12.73;;;;;;;23.26;60.61;100087.63;5009026;28;20033;-53
2021/07/25 04:06:25;;;;;;;14.18;12.77;;;;;;;23.24;60.45;100078.81;4987008;28;20037;-55
2021/07/25 04:08:51;;;;;;;14.40;12.90;;;;;;;23.24;60.55;100082.34;5000688;28;20033;-54
2021/07/25 04:11:18;;;;;;;13.90;12.45;;;;;;;23.25;60.58;100083.22;5011121;28;20587;-55
2021/07/25 04:13:47;;;;;;;15.48;13.98;;;;;;;23.23;60.43;100090.53;5011671;28;20032;-55
2021/07/25 04:16:13;;;;;;;14.75;13.25;;;;;;;23.23;60.48;100085.13;5012271;28;20022;-55
2021/07/25 04:18:38;;;;;;;15.38;13.77;;;;;;;23.22;60.61;100089.69;5011844;28;20037;-55
2021/07/25 04:21:03;;;;;;;14.50;13.02;;;;;;;23.22;60.66;100088.81;5012245;28;20055;-55
2021/07/25 04:23:29;;;;;;;16.50;14.00;;;;;;;23.21;60.75;100098.72;5017802;28;20475;-55
2021/07/25 04:25:54;;;;;;;14.75;13.25;;;;;;;23.22;60.72;100107.63;5018861;28;20026;-55
2021/07/25 04:28:21;;;;;;;14.68;13.32;;;;;;;23.20;60.50;100119.38;5018640;28;20053;-55
2021/07/25 04:30:47;;;;;;;13.35;12.13;;;;;;;23.21;60.49;100117.56;5018312;28;20395;-54
2021/07/25 04:33:15;;;;;;;14.23;12.93;;;;;;;23.19;60.56;100123.03;5017598;28;20032;-54
2021/07/25 04:35:41;;;;;;;13.85;12.40;;;;;;;23.19;60.45;100130.25;5017513;28;20034;-55
2021/07/25 04:38:07;;;;;;;15.18;13.30;;;;;;;23.18;60.31;100126.69;5017935;28;20044;-55
2021/07/25 04:40:32;;;;;;;14.73;13.32;;;;;;;23.18;60.47;100124.00;5018653;28;20448;-55
2021/07/25 04:43:02;;;;;;;15.25;13.60;;;;;;;23.17;60.53;100119.59;5017859;28;20029;-54
2021/07/25 04:45:45;;;;;;;15.95;13.07;;;;;;;23.16;60.39;100115.19;5015729;28;20480;-55
2021/07/25 04:48:21;;;;;;;14.27;12.98;;;;;;;23.16;60.45;100125.94;5007839;28;20098;-54
2021/07/25 04:50:51;;;;;;;14.50;13.02;;;;;;;23.14;60.48;100124.34;5017883;28;20030;-55
2021/07/25 04:53:25;;;;;;;14.75;13.38;;;;;;;23.13;60.77;100128.84;5018304;28;20032;-55
2021/07/25 04:56:02;;;;;;;12.75;11.45;;;;;;;23.14;60.72;100130.56;5018517;28;20034;-55
2021/07/25 04:58:49;;;;;;;12.95;11.57;;;;;;;23.15;60.58;100134.13;5001128;28;20026;-55
2021/07/25 05:01:24;;;;;;;13.30;11.90;;;;;;;23.14;60.57;100129.72;5018297;28;20033;-54
2021/07/25 05:03:49;;;;;;;12.95;11.75;;;;;;;23.14;60.64;100127.88;4993674;28;20033;-55
2021/07/25 05:06:15;;;;;;;12.93;11.63;;;;;;;23.14;60.63;100118.97;5016829;28;20499;-55
2021/07/25 05:08:41;;;;;;;13.82;12.52;;;;;;;23.13;60.63;100117.22;5018204;28;20026;-54
2021/07/25 05:11:21;;;;;;;14.07;12.70;;;;;;;23.13;60.56;100119.91;5018037;28;20037;-55
2021/07/25 05:13:49;;;;;;;12.63;11.40;;;;;;;23.13;60.69;100114.53;5017617;28;20030;-55
2021/07/25 05:16:22;;;;;;;13.15;11.85;;;;;;;23.11;60.33;100117.31;5017345;28;20468;-54
2021/07/25 05:18:56;;;;;;;13.18;11.77;;;;;;;23.11;60.55;100114.63;5000610;28;20080;-55
2021/07/25 05:21:36;;;;;;;12.65;11.35;;;;;;;23.11;60.50;100121.88;5000883;28;20022;-54
2021/07/25 05:24:03;;;;;;;13.10;11.77;;;;;;;23.11;60.66;100111.09;5000103;28;20040;-54
2021/07/25 05:26:29;;;;;;;12.20;11.02;;;;;;;23.10;60.56;100110.25;5016935;28;20068;-55
2021/07/25 05:28:57;;;;;;;12.25;11.02;;;;;;;23.12;60.53;100118.19;5018034;28;20494;-55
2021/07/25 05:31:33;;;;;;;13.68;12.30;;;;;;;23.10;60.33;100110.25;5000322;28;20172;-55
2021/07/25 05:33:59;;;;;;;11.77;10.57;;;;;;;23.10;60.35;100104.00;4997102;28;20029;-55
2021/07/25 05:36:58;;;;;;;12.43;11.13;;;;;;;23.09;60.43;100104.97;5013740;28;20368;-54
2021/07/25 05:39:24;;;;;;;12.48;11.18;;;;;;;23.10;60.38;100109.41;5014568;28;20038;-55
2021/07/25 05:41:49;;;;;;;11.98;10.77;;;;;;;23.09;60.34;100103.16;5014480;28;20360;-54
2021/07/25 05:44:14;;;;;;;11.25;10.15;;;;;;;23.10;60.71;100110.25;5013982;28;20476;-54
2021/07/25 05:46:40;;;;;;;11.80;10.60;;;;;;;23.09;60.57;100107.66;5012780;28;20065;-55
2021/07/25 05:49:05;;;;;;;11.35;10.25;;;;;;;23.09;60.74;100113.03;5014155;28;20026;-55
2021/07/25 05:51:30;;;;;;;12.38;11.25;;;;;;;23.09;60.32;100121.97;5015003;28;20057;-55
2021/07/25 05:53:58;;;;;;;11.48;10.38;;;;;;;23.09;60.35;100121.97;5013795;28;20483;-55
2021/07/25 05:56:24;;;;;;;11.45;10.27;;;;;;;23.08;60.59;100122.94;5012380;28;20034;-55
2021/07/25 05:58:49;;;;;;;11.55;10.45;;;;;;;23.09;60.38;100123.78;5013449;28;20022;-54
2021/07/25 06:01:14;;;;;;;11.82;10.73;;;;;;;23.08;60.59;100117.56;5013929;28;20033;-54
2021/07/25 06:03:40;;;;;;;12.38;11.18;;;;;;;23.05;60.44;100113.25;5013705;28;20352;-54
2021/07/25 06:06:08;;;;;;;11.85;10.65;;;;;;;23.06;60.54;100115.00;5012720;28;20072;-55
2021/07/25 06:08:33;;;;;;;11.85;10.73;;;;;;;23.06;60.74;100114.13;4996594;28;20104;-55
2021/07/25 06:10:58;;;;;;;11.80;10.60;;;;;;;23.05;60.61;100110.56;4995802;28;20434;-54
2021/07/25 06:13:24;;;;;;;11.80;10.70;;;;;;;23.06;60.59;100108.75;5013061;28;20029;-55
2021/07/25 06:15:49;;;;;;;12.77;11.55;;;;;;;23.07;60.71;100115.81;5012969;28;20036;-55
2021/07/25 06:18:15;;;;;;;11.30;10.20;;;;;;;23.07;60.85;100107.75;5013775;28;20033;-54
2021/07/25 06:20:40;;;;;;;11.57;10.48;;;;;;;23.07;60.72;100118.50;5013861;28;20021;-55
2021/07/25 06:23:09;;;;;;;10.88;9.80;;;;;;;23.08;60.48;100128.31;5013566;28;20021;-55
2021/07/25 06:25:35;;;;;;;12.05;10.93;;;;;;;23.07;60.78;100123.91;5013215;28;20030;-55
2021/07/25 06:28:03;;;;;;;10.90;9.88;;;;;;;23.07;60.68;100126.59;5013897;28;20499;-55
2021/07/25 06:30:28;;;;;;;10.65;9.65;;;;;;;23.09;60.66;100126.47;4996217;28;20036;-53
2021/07/25 06:32:57;;;;;;;11.35;10.25;;;;;;;23.09;60.49;100121.09;5013135;28;20029;-51
2021/07/25 06:35:24;;;;;;;10.93;9.93;;;;;;;23.07;60.70;100115.81;4994143;28;20439;-52
2021/07/25 06:37:50;;;;;;;10.68;9.60;;;;;;;23.12;60.62;100119.06;5013183;28;20108;-51
2021/07/25 06:40:15;;;;;;;10.52;9.52;;;;;;;23.13;60.89;100114.53;4996005;28;20108;-52
2021/07/25 06:42:41;;;;;;;11.80;10.60;;;;;;;23.14;60.50;100111.72;5013666;28;20087;-51
2021/07/25 06:45:07;;;;;;;12.27;10.90;;;;;;;23.10;60.61;100121.00;5012033;28;20386;-51
2021/07/25 06:47:32;;;;;;;12.38;11.13;;;;;;;23.09;60.73;100124.66;4995450;28;20391;-51
2021/07/25 06:49:57;;;;;;;11.75;10.57;;;;;;;23.09;60.74;100124.66;5013362;28;20030;-53
2021/07/25 06:52:22;;;;;;;11.73;10.63;;;;;;;23.08;60.45;100128.31;5012659;28;20438;-51
2021/07/25 06:54:48;;;;;;;11.60;10.50;;;;;;;23.11;60.89;100119.19;5013117;28;20038;-51
2021/07/25 06:57:13;;;;;;;12.90;10.75;;;;;;;23.09;60.42;100124.66;5012583;28;20085;-51
2021/07/25 06:59:38;;;;;;;11.48;10.27;;;;;;;23.07;60.68;100126.59;5012081;28;20025;-52
2021/07/25 07:02:04;;;;;;;11.18;10.05;;;;;;;23.09;61.00;100130.03;5011901;28;20038;-53
2021/07/25 07:04:29;;;;;;;13.35;11.85;;;;;;;23.09;60.62;100118.41;5012787;28;20026;-51
2021/07/25 07:06:55;;;;;;;12.13;10.68;;;;;;;23.07;60.75;100122.06;5012484;28;20391;-54
2021/07/25 07:09:20;;;;;;;12.80;11.50;;;;;;;23.08;60.91;100125.63;5013008;28;20076;-51
2021/07/25 07:11:45;;;;;;;12.20;10.98;;;;;;;23.09;60.57;100127.34;5013166;28;20030;-52
2021/07/25 07:14:10;;;;;;;11.15;9.95;;;;;;;23.09;60.77;100119.28;5012040;28;20060;-53
2021/07/25 07:16:36;;;;;;;11.25;10.25;;;;;;;23.08;60.75;100122.94;4994557;28;20033;-51
2021/07/25 07:19:02;;;;;;;11.25;10.07;;;;;;;23.08;60.74;100122.94;5012138;28;20107;-51
2021/07/25 07:21:27;;;;;;;12.30;11.15;;;;;;;23.07;60.70;100116.69;5011686;28;20044;-52
2021/07/25 07:23:52;;;;;;;10.70;9.73;;;;;;;23.08;60.59;100114.88;5012670;28;20030;-52
2021/07/25 07:26:18;;;;;;;11.88;10.77;;;;;;;23.09;60.57;100119.28;5012177;28;20057;-51
2021/07/25 07:28:43;;;;;;;11.40;10.30;;;;;;;23.07;60.64;100122.06;5012526;28;20030;-52
2021/07/25 07:31:08;;;;;;;11.45;10.35;;;;;;;23.09;60.89;100134.53;5012114;28;20034;-51
2021/07/25 07:33:34;;;;;;;11.73;10.55;;;;;;;23.08;60.46;100131.00;5012240;28;20400;-52
2021/07/25 07:35:59;;;;;;;11.48;9.82;;;;;;;23.07;60.92;100138.22;5012254;28;20483;-52
2021/07/25 07:38:24;;;;;;;12.50;11.35;;;;;;;23.09;61.04;100142.63;5011726;28;20024;-51
2021/07/25 07:40:50;;;;;;;10.52;9.50;;;;;;;23.07;60.76;100137.34;5018135;28;20399;-52
2021/07/25 07:43:20;;;;;;;11.10;10.05;;;;;;;23.07;60.88;100142.72;5032208;28;20032;-52
2021/07/25 07:45:46;;;;;;;10.60;9.63;;;;;;;23.07;61.00;100140.03;5017627;28;20034;-52
2021/07/25 07:48:14;;;;;;;12.32;10.90;;;;;;;23.07;60.81;100137.34;5011547;28;20034;-51
2021/07/25 07:50:42;;;;;;;10.93;9.93;;;;;;;23.07;60.82;100142.72;5011549;28;20025;-53
2021/07/25 07:53:08;;;;;;;10.85;9.95;;;;;;;23.06;60.86;100141.00;5019817;28;20030;-52
2021/07/25 07:55:33;;;;;;;11.63;10.45;;;;;;;23.06;60.81;100135.63;5014127;28;20058;-51
2021/07/25 07:57:58;;;;;;;10.20;9.30;;;;;;;23.06;60.92;100141.00;5031507;28;20033;-52
2021/07/25 08:00:24;;;;;;;11.43;10.27;;;;;;;23.04;61.05;100133.03;5014685;28;20025;-51
2021/07/25 08:02:49;;;;;;;11.70;10.50;;;;;;;23.05;60.84;100139.28;5011649;28;20064;-52
2021/07/25 08:05:17;;;;;;;12.68;11.38;;;;;;;23.05;60.99;100139.28;5010372;28;20022;-51
2021/07/25 08:07:43;;;;;;;11.80;10.52;;;;;;;23.06;60.92;100143.69;5009618;28;20481;-52
2021/07/25 08:10:09;;;;;;;11.00;9.95;;;;;;;23.06;61.00;100141.00;5011263;28;20056;-51
2021/07/25 08:12:36;;;;;;;11.10;10.05;;;;;;;23.05;60.87;100144.66;5009542;28;20030;-51
2021/07/25 08:15:01;;;;;;;10.75;9.73;;;;;;;23.05;60.78;100141.97;5011147;28;20099;-52
2021/07/25 08:17:30;;;;;;;11.95;10.75;;;;;;;23.06;60.72;100143.69;5010718;28;20037;-52
2021/07/25 08:20:00;;;;;;;11.93;10.88;;;;;;;23.06;60.85;100144.56;5007585;28;20025;-51
2021/07/25 08:22:25;;;;;;;12.45;11.30;;;;;;;23.06;60.92;100151.75;5011507;28;20029;-52
2021/07/25 08:24:51;;;;;;;10.90;9.85;;;;;;;23.06;60.54;100147.25;5011663;28;20033;-52
2021/07/25 08:27:16;;;;;;;12.50;11.27;;;;;;;23.07;60.94;100148.09;5011872;28;20030;-51
2021/07/25 08:29:41;;;;;;;12.25;11.05;;;;;;;23.06;60.77;100147.25;5010759;28;20018;-52
2021/07/25 08:32:09;;;;;;;11.50;10.30;;;;;;;23.06;60.87;100151.75;5011792;28;20038;-51
2021/07/25 08:34:34;;;;;;;12.20;10.98;;;;;;;23.06;60.67;100149.06;4977451;28;20029;-56
2021/07/25 08:37:00;;;;;;;12.32;11.18;;;;;;;23.05;60.64;100158.13;5012104;28;20049;-51
2021/07/25 08:39:25;;;;;;;12.38;11.07;;;;;;;23.05;60.95;100150.06;4992597;28;20435;-51
2021/07/25 08:41:59;;;;;;;12.32;11.05;;;;;;;23.07;60.76;100161.53;5010353;28;20414;-52
2021/07/25 08:44:46;;;;;;;12.25;11.05;;;;;;;23.06;60.87;100163.38;5011683;28;20026;-53
2021/07/25 08:47:36;;;;;;;11.50;10.43;;;;;;;23.08;60.67;100160.59;5011212;28;20036;-51
2021/07/25 08:50:11;;;;;;;11.85;10.65;;;;;;;23.07;60.98;100162.41;5005208;28;20599;-53
2021/07/25 08:52:42;;;;;;;11.77;10.68;;;;;;;23.06;61.21;100170.59;5011212;28;20146;-52
2021/07/25 08:55:10;;;;;;;11.68;10.57;;;;;;;23.07;60.82;100175.00;5011471;28;20596;-52
2021/07/25 08:57:38;;;;;;;11.82;10.73;;;;;;;23.06;60.84;100163.38;4993679;28;20042;-52
2021/07/25 09:00:08;;;;;;;12.35;10.75;;;;;;;23.07;61.04;100169.59;4992785;28;20029;-51
2021/07/25 09:02:34;;;;;;;11.45;10.45;;;;;;;23.07;60.85;100164.22;4993203;28;20056;-53
2021/07/25 09:05:00;;;;;;;11.77;10.65;;;;;;;23.07;61.06;100172.31;5011735;28;20368;-51
2021/07/25 09:07:28;;;;;;;12.02;10.88;;;;;;;23.06;61.04;100168.78;5011582;28;20395;-51
2021/07/25 09:09:56;;;;;;;12.13;10.93;;;;;;;23.07;61.13;100172.31;4994622;28;20038;-53
2021/07/25 09:12:22;;;;;;;11.85;10.75;;;;;;;23.09;61.21;100175.75;5015422;28;20030;-52
2021/07/25 09:14:56;;;;;;;13.20;11.75;;;;;;;23.09;61.26;100177.56;5015044;28;20027;-51
2021/07/25 09:17:22;;;;;;;13.70;11.43;;;;;;;23.07;60.94;100170.47;4980787;28;20087;-51
2021/07/25 09:20:17;;;;;;;12.25;11.10;;;;;;;23.09;61.07;100178.44;5014379;28;20054;-51
2021/07/25 09:22:48;;;;;;;11.93;10.73;;;;;;;23.10;61.16;100173.94;4988332;28;20091;-52
2021/07/25 09:25:20;;;;;;;12.52;11.35;;;;;;;23.10;60.95;100174.78;5014976;28;20033;-51
2021/07/25 09:28:06;;;;;;;13.10;10.82;;;;;;;23.11;60.85;100165.72;5015174;28;20496;-51
2021/07/25 09:30:31;;;;;;;12.48;11.18;;;;;;;23.12;61.10;100162.09;5013611;28;20496;-52
2021/07/25 09:32:57;;;;;;;12.88;11.57;;;;;;;23.13;61.08;100166.50;5014817;28;20120;-51
2021/07/25 09:35:31;;;;;;;12.15;11.02;;;;;;;23.15;61.04;100166.41;5014804;28;20037;-51
2021/07/25 09:38:17;;;;;;;12.13;10.90;;;;;;;23.15;60.68;100166.41;5014559;28;20602;-52
2021/07/25 09:40:44;;;;;;;12.13;11.02;;;;;;;23.16;60.83;100162.72;5014587;28;20096;-52
2021/07/25 09:43:23;;;;;;;12.45;11.15;;;;;;;23.17;60.83;100159.94;4995129;28;20040;-52
2021/07/25 09:45:55;;;;;;;11.90;10.70;;;;;;;23.17;61.02;100165.31;5014122;28;20057;-53
2021/07/25 09:48:34;;;;;;;12.27;11.15;;;;;;;23.18;60.91;100161.66;5014759;28;20063;-52
2021/07/25 09:51:19;;;;;;;11.85;10.65;;;;;;;23.19;60.89;100162.53;5014934;28;20475;-52
2021/07/25 09:53:47;;;;;;;12.32;11.13;;;;;;;23.19;61.26;100162.53;5011986;28;20029;-52
2021/07/25 09:56:16;;;;;;;12.48;11.35;;;;;;;23.18;61.09;100167.03;5014489;28;20480;-51
2021/07/25 09:58:41;;;;;;;12.88;11.68;;;;;;;23.18;61.25;100161.66;5014461;28;20026;-51
2021/07/25 10:01:06;;;;;;;12.68;11.48;;;;;;;23.20;61.24;100161.53;5014351;28;20076;-53
2021/07/25 10:03:32;;;;;;;12.65;11.40;;;;;;;23.19;61.54;100163.38;5013985;28;20022;-52
2021/07/25 10:06:00;;;;;;;11.70;10.60;;;;;;;23.19;61.55;100157.13;5013127;28;20026;-52
2021/07/25 10:08:26;;;;;;;13.05;11.75;;;;;;;23.22;61.47;100156.06;5014328;28;20096;-52
2021/07/25 10:10:53;;;;;;;13.57;12.18;;;;;;;23.21;61.53;100155.22;5014328;28;20026;-51
2021/07/25 10:13:20;;;;;;;14.75;11.80;;;;;;;23.40;62.01;100154.78;5013686;28;21041;-48
2021/07/25 10:16:02;;;;;;;13.63;11.55;;;;;;;23.84;61.80;100146.25;5013925;28;20025;-51
2021/07/25 10:18:27;;;;;;;14.70;11.73;;;;;;;23.92;60.34;100138.50;5014117;28;20569;-52
2021/07/25 10:20:58;;;;;;;13.50;11.88;;;;;;;23.87;60.71;100143.34;5013584;28;20033;-52
2021/07/25 10:23:44;;;;;;;15.48;13.35;;;;;;;23.81;60.67;100146.50;5013153;28;20033;-53
2021/07/25 10:26:30;;;;;;;13.75;12.35;;;;;;;23.74;60.89;100143.38;5014158;28;20029;-52
2021/07/25 10:29:15;;;;;;;15.68;13.95;;;;;;;23.70;60.66;100145.44;5013338;28;20065;-53
2021/07/25 10:31:43;;;;;;;16.58;14.85;;;;;;;23.66;60.66;100141.28;5012957;28;20029;-52
2021/07/25 10:34:10;;;;;;;15.75;13.63;;;;;;;23.64;60.73;100128.91;4996020;28;20030;-52
2021/07/25 10:36:39;;;;;;;15.35;13.85;;;;;;;23.63;60.78;100122.66;5011331;28;20037;-52
2021/07/25 10:39:05;;;;;;;18.05;14.05;;;;;;;23.60;61.15;100132.78;4995456;28;20022;-52
2021/07/25 10:41:30;;;;;;;15.25;13.27;;;;;;;23.60;61.00;100125.56;5012646;28;20026;-52
2021/07/25 10:43:59;;;;;;;14.38;12.93;;;;;;;23.61;60.74;100129.13;4995289;28;20033;-53
2021/07/25 10:46:24;;;;;;;14.65;13.15;;;;;;;23.59;60.78;100137.31;4992840;28;20514;-52
2021/07/25 10:49:09;;;;;;;15.45;13.85;;;;;;;23.59;61.01;100142.69;5011978;28;20026;-52
2021/07/25 10:51:55;;;;;;;14.13;12.65;;;;;;;23.60;60.72;100139.00;5012338;28;20033;-52
2021/07/25 10:54:23;;;;;;;14.82;13.15;;;;;;;23.57;61.14;100140.09;5012214;28;20026;-52
2021/07/25 10:57:10;;;;;;;14.25;12.75;;;;;;;23.60;60.63;100140.88;5019470;28;20079;-53
2021/07/25 10:59:41;;;;;;;15.55;13.88;;;;;;;23.57;60.83;100140.09;5021226;28;20026;-52
2021/07/25 11:02:08;;;;;;;15.35;13.75;;;;;;;23.58;60.77;100143.66;5011613;28;20037;-53
2021/07/25 11:04:58;;;;;;;14.32;12.82;;;;;;;23.60;60.66;100136.31;5013241;28;20021;-52
2021/07/25 11:07:23;;;;;;;15.30;13.32;;;;;;;23.61;60.78;100139.88;5013829;28;20026;-52
2021/07/25 11:10:11;;;;;;;13.87;12.47;;;;;;;23.61;60.54;100135.34;5013013;28;20095;-52
2021/07/25 11:12:52;;;;;;;13.48;12.18;;;;;;;23.60;60.70;100144.41;5013427;28;20388;-53
2021/07/25 11:15:32;;;;;;;13.27;11.85;;;;;;;23.60;60.43;100143.56;5013473;28;20064;-52
2021/07/25 11:18:01;;;;;;;12.48;11.25;;;;;;;23.59;60.77;100148.06;5013597;28;20026;-52